Time;durP1;ratioP1;P1;durP2;ratioP2;P2;SDS_P1;SDS_P2;PMS_P1;PMS_P2;Temp;Humidity;BMP_temperature;BMP_pressure;BME280_temperature;BME280_humidity;BME280_pressure;Samples;Min_cycle;Max_cycle;Signal;HPM_P1;HPM_P2
2022/05/15 00:01:19;;;;;;;17.12;12.70;;;27.60;99.90;;;;;;1857087;75;21154;-80
2022/05/15 00:03:51;;;;;;;16.73;13.00;;;27.50;99.90;;;;;;1841889;77;21092;-80
2022/05/15 00:06:22;;;;;;;19.48;12.85;;;27.70;99.90;;;;;;1830494;76;21249;-80
2022/05/15 00:08:53;;;;;;;22.22;14.40;;;27.40;99.90;;;;;;1797774;77;21218;-80
2022/05/15 00:11:24;;;;;;;18.75;12.18;;;27.70;99.90;;;;;;1837333;77;21182;-80
2022/05/15 00:13:56;;;;;;;16.95;12.95;;;27.70;99.90;;;;;;1846858;76;21171;-80
2022/05/15 00:16:27;;;;;;;17.70;12.85;;;27.60;99.90;;;;;;1844608;76;21137;-81
2022/05/15 00:19:01;;;;;;;18.92;12.15;;;27.60;99.90;;;;;;1825993;76;21244;-80
2022/05/15 00:21:33;;;;;;;17.10;12.07;;;27.60;99.90;;;;;;1832201;76;21449;-80
2022/05/15 00:24:05;;;;;;;18.07;12.28;;;27.70;99.90;;;;;;1917662;74;21228;-80
2022/05/15 00:26:42;;;;;;;19.85;12.05;;;27.70;99.90;;;;;;1859093;75;21626;-80
2022/05/15 00:29:13;;;;;;;18.05;11.25;;;27.80;99.90;;;;;;1878146;74;21667;-80
2022/05/15 00:31:46;;;;;;;20.55;12.13;;;27.80;99.90;;;;;;1862851;74;21232;-80
2022/05/15 00:34:17;;;;;;;17.50;11.80;;;28.00;99.90;;;;;;1856704;74;21207;-81
2022/05/15 00:36:48;;;;;;;14.40;11.15;;;28.00;99.90;;;;;;1812361;77;21160;-80
2022/05/15 00:39:20;;;;;;;14.50;10.80;;;27.80;99.90;;;;;;1801794;77;21173;-81
2022/05/15 00:41:50;;;;;;;17.02;11.28;;;27.90;99.90;;;;;;1815141;76;21112;-80
2022/05/15 00:44:22;;;;;;;15.38;10.95;;;;;;;;;;1841016;76;21195;-80
2022/05/15 00:46:53;;;;;;;13.45;9.85;;;28.20;99.90;;;;;;1808376;77;21108;-80
2022/05/15 00:49:23;;;;;;;14.43;9.43;;;28.00;99.90;;;;;;1853406;75;21174;-80
2022/05/15 00:51:57;;;;;;;13.15;9.30;;;28.10;99.90;;;;;;1805381;77;21142;-80
2022/05/15 00:54:30;;;;;;;14.03;9.15;;;28.40;99.90;;;;;;1837957;77;21092;-81
2022/05/15 00:57:03;;;;;;;17.52;9.70;;;28.20;99.90;;;;;;1838177;76;21151;-81
2022/05/15 00:59:36;;;;;;;15.18;9.08;;;28.50;99.90;;;;;;1838244;76;21171;-80
2022/05/15 01:02:09;;;;;;;14.58;9.85;;;28.50;99.90;;;;;;1840870;76;21139;-81
2022/05/15 01:04:41;;;;;;;15.48;9.53;;;28.70;99.90;;;;;;1856781;76;21649;-80
2022/05/15 01:07:12;;;;;;;15.08;8.85;;;28.80;99.90;;;;;;1837554;76;21221;-81
2022/05/15 01:09:43;;;;;;;13.62;9.78;;;28.70;99.90;;;;;;1838657;76;21131;-80
2022/05/15 01:12:15;;;;;;;14.63;9.53;;;28.80;99.90;;;;;;1869208;75;21247;-81
2022/05/15 01:14:48;;;;;;;13.00;9.48;;;28.90;99.90;;;;;;1866894;75;21758;-80
2022/05/15 01:17:19;;;;;;;15.55;10.18;;;28.80;99.90;;;;;;1871424;75;21118;-81
2022/05/15 01:19:51;;;;;;;14.75;10.30;;;;;;;;;;1871397;74;21193;-80
2022/05/15 01:22:23;;;;;;;18.32;9.90;;;29.10;99.90;;;;;;1839236;76;21578;-81
2022/05/15 01:24:54;;;;;;;13.18;10.08;;;29.10;99.90;;;;;;1877347;75;21227;-80
2022/05/15 01:27:24;;;;;;;14.25;9.38;;;29.40;99.90;;;;;;1874239;75;21143;-81
2022/05/15 01:29:55;;;;;;;11.85;8.93;;;29.30;99.90;;;;;;1871025;75;21103;-81
2022/05/15 01:32:26;;;;;;;12.40;9.43;;;;;;;;;;1884732;74;21171;-80
2022/05/15 01:34:57;;;;;;;16.62;10.93;;;29.30;99.90;;;;;;1872313;75;21190;-81
2022/05/15 01:37:27;;;;;;;19.23;12.30;;;29.40;99.90;;;;;;1876984;75;21096;-80
2022/05/15 01:39:58;;;;;;;15.48;11.90;;;29.30;99.90;;;;;;1883393;74;21099;-80
2022/05/15 01:42:29;;;;;;;15.53;12.03;;;29.50;99.90;;;;;;1886075;74;21155;-80
2022/05/15 01:45:00;;;;;;;14.30;10.90;;;29.30;99.90;;;;;;1869770;75;21167;-80
2022/05/15 01:47:32;;;;;;;18.77;11.75;;;29.50;99.90;;;;;;1833860;76;21567;-81
2022/05/15 01:50:07;;;;;;;17.20;12.37;;;29.40;99.90;;;;;;1833217;76;21595;-82
2022/05/15 01:52:38;;;;;;;16.15;11.48;;;29.40;99.90;;;;;;1864291;76;21131;-81
2022/05/15 01:55:10;;;;;;;14.95;11.43;;;29.30;99.90;;;;;;1828957;76;21108;-81
2022/05/15 01:57:41;;;;;;;18.52;12.03;;;29.30;99.90;;;;;;1845758;76;21079;-81
2022/05/15 02:00:15;;;;;;;16.70;11.53;;;29.50;99.90;;;;;;1841042;76;21112;-81
2022/05/15 02:02:47;;;;;;;15.50;11.28;;;29.50;99.90;;;;;;1857730;77;21075;-81
2022/05/15 02:05:20;;;;;;;17.32;12.23;;;29.50;99.90;;;;;;1855041;75;21167;-82
2022/05/15 02:07:53;;;;;;;14.45;12.40;;;29.30;99.90;;;;;;1847783;75;21575;-82
2022/05/15 02:10:23;;;;;;;17.23;12.78;;;;;;;;;;1867896;76;21157;-81
2022/05/15 02:12:54;;;;;;;19.52;12.18;;;29.80;99.90;;;;;;1845602;76;21170;-80
2022/05/15 02:15:25;;;;;;;17.98;11.68;;;29.60;99.90;;;;;;1854917;77;21198;-81
2022/05/15 02:17:56;;;;;;;17.98;11.57;;;29.60;99.90;;;;;;1852141;76;21190;-81
2022/05/15 02:20:27;;;;;;;17.37;12.25;;;29.70;99.90;;;;;;1847061;77;21171;-81
2022/05/15 02:22:58;;;;;;;20.30;13.20;;;29.90;99.90;;;;;;1843052;76;21178;-81
2022/05/15 02:25:29;;;;;;;16.02;12.70;;;30.00;99.90;;;;;;1855113;76;21144;-82
2022/05/15 02:28:00;;;;;;;17.02;12.53;;;30.00;99.90;;;;;;1846994;76;21678;-81
2022/05/15 02:30:33;;;;;;;16.02;12.88;;;30.10;99.90;;;;;;1826753;77;21627;-80
2022/05/15 02:33:05;;;;;;;20.00;12.90;;;30.00;99.90;;;;;;1833339;76;21155;-80
2022/05/15 02:35:36;;;;;;;17.57;12.55;;;30.00;99.90;;;;;;1782982;78;21164;-83
2022/05/15 02:38:07;;;;;;;16.52;13.28;;;30.20;99.90;;;;;;1792450;79;21243;-82
2022/05/15 02:40:40;;;;;;;18.07;12.28;;;30.10;99.90;;;;;;1811343;76;21262;-81
2022/05/15 02:43:11;;;;;;;16.62;13.50;;;30.50;99.90;;;;;;1793865;78;21219;-80
2022/05/15 02:45:42;;;;;;;18.37;12.37;;;30.40;99.90;;;;;;1828848;78;21209;-81
2022/05/15 02:53:18;;;;;;;15.43;12.70;;;30.90;99.90;;;;;;1815646;77;21225;-81
2022/05/15 02:55:50;;;;;;;19.07;12.88;;;;;;;;;;1794469;77;21125;-81
2022/05/15 02:58:21;;;;;;;17.23;12.40;;;;;;;;;;1794334;78;21162;-82
2022/05/15 03:00:52;;;;;;;18.12;12.07;;;;;;;;;;1820264;77;21635;-81
2022/05/15 03:03:24;;;;;;;17.98;13.43;;;;;;;;;;1822483;78;21142;-73
2022/05/15 03:05:56;;;;;;;18.20;12.98;;;;;;;;;;1824347;78;21183;-73
2022/05/15 03:08:27;;;;;;;15.25;12.03;;;;;;;;;;1788175;78;21651;-72
2022/05/15 03:10:58;;;;;;;14.70;12.45;;;31.10;99.90;;;;;;1818482;77;21146;-72
2022/05/15 03:13:29;;;;;;;21.42;12.50;;;31.20;99.90;;;;;;1812922;78;21145;-73
2022/05/15 03:16:00;;;;;;;16.15;12.18;;;;;;;;;;1818259;77;21216;-73
2022/05/15 03:18:34;;;;;;;23.83;12.80;;;31.90;99.90;;;;;;1774815;79;21733;-73
2022/05/15 03:21:05;;;;;;;17.37;12.47;;;31.90;99.90;;;;;;1858961;76;21205;-73
2022/05/15 03:23:36;;;;;;;16.35;12.50;;;31.90;99.90;;;;;;1843620;77;21144;-73
2022/05/15 03:26:07;;;;;;;15.50;11.20;;;;;;;;;;1854906;76;21182;-73
2022/05/15 03:28:41;;;;;;;19.00;12.15;;;31.90;99.90;;;;;;1848724;77;21731;-73
2022/05/15 03:31:13;;;;;;;12.85;10.75;;;;;;;;;;1846977;77;21229;-73
2022/05/15 03:33:47;;;;;;;15.25;10.82;;;;;;;;;;1852198;76;21237;-75
2022/05/15 03:36:20;;;;;;;13.78;11.10;;;;;;;;;;1858800;76;21119;-74
2022/05/15 03:38:53;;;;;;;13.13;10.68;;;;;;;;;;1826745;78;21083;-72
2022/05/15 03:41:25;;;;;;;12.55;10.38;;;;;;;;;;1839037;77;21649;-73
2022/05/15 03:43:56;;;;;;;16.93;11.33;;;;;;;;;;1832030;77;21175;-73
2022/05/15 03:46:27;;;;;;;13.35;9.95;;;;;;;;;;1832486;77;21159;-73
2022/05/15 03:48:59;;;;;;;12.70;9.75;;;;;;;;;;1816416;78;21171;-73
2022/05/15 03:51:49;;;;;;;14.98;9.70;;;;;;;;;;1777974;80;21135;-73
2022/05/15 03:54:20;;;;;;;13.75;9.53;;;;;;;;;;1877459;75;21163;-72
2022/05/15 03:56:51;;;;;;;13.65;10.28;;;;;;;;;;1834917;76;21150;-71
2022/05/15 03:59:24;;;;;;;14.10;10.08;;;;;;;;;;1850018;76;21152;-72
2022/05/15 04:02:02;;;;;;;13.38;9.63;;;32.50;99.90;;;;;;1866847;76;21151;-71
2022/05/15 04:04:33;;;;;;;15.53;10.70;;;32.70;99.90;;;;;;1881917;75;21265;-72
2022/05/15 04:07:05;;;;;;;12.30;9.90;;;32.70;99.90;;;;;;1891167;75;21140;-72
2022/05/15 04:09:40;;;;;;;13.60;9.45;;;32.80;99.90;;;;;;1908332;74;21658;-72
2022/05/15 04:12:10;;;;;;;11.85;8.90;;;33.00;99.90;;;;;;1913206;74;21099;-72
2022/05/15 04:14:41;;;;;;;13.25;9.85;;;32.70;99.90;;;;;;1904314;75;21147;-72
2022/05/15 04:17:12;;;;;;;10.88;8.78;;;32.70;99.90;;;;;;1904589;75;21112;-72
2022/05/15 04:19:43;;;;;;;14.98;10.80;;;33.10;99.90;;;;;;1905251;74;21120;-72
2022/05/15 04:22:15;;;;;;;13.53;9.95;;;32.90;99.90;;;;;;1870374;76;21108;-72
2022/05/15 04:24:45;;;;;;;11.90;9.15;;;33.40;99.90;;;;;;1820213;78;21176;-72
2022/05/15 04:27:17;;;;;;;17.00;10.23;;;;;;;;;;1824397;76;21739;-72
2022/05/15 04:29:48;;;;;;;12.45;9.38;;;;;;;;;;1871644;76;21108;-72
2022/05/15 04:32:19;;;;;;;14.58;9.55;;;;;;;;;;1844883;76;21178;-73
2022/05/15 04:34:50;;;;;;;12.78;9.70;;;;;;;;;;1868930;77;21163;-73
2022/05/15 04:37:21;;;;;;;15.03;9.33;;;;;;;;;;1868781;74;21076;-73
2022/05/15 04:39:51;;;;;;;13.62;9.50;;;33.50;99.90;;;;;;1863439;76;21155;-72
2022/05/15 04:42:23;;;;;;;11.00;8.93;;;33.40;99.90;;;;;;1904814;74;21755;-73
2022/05/15 04:44:53;;;;;;;11.03;8.33;;;;;;;;;;1921979;73;21587;-73
2022/05/15 04:47:24;;;;;;;13.72;9.25;;;33.50;99.90;;;;;;1919268;74;21599;-72
2022/05/15 04:49:56;;;;;;;12.55;9.00;;;;;;;;;;1903639;74;21193;-72
2022/05/15 04:52:27;;;;;;;14.65;9.03;;;;;;;;;;1916593;74;21212;-72
2022/05/15 04:54:57;;;;;;;14.43;8.78;;;33.70;90.00;;;;;;1922316;74;22221;-73
2022/05/15 04:57:29;;;;;;;11.33;8.08;;;33.80;90.10;;;;;;1915958;74;21673;-73
2022/05/15 05:00:00;;;;;;;11.12;8.35;;;33.90;89.40;;;;;;1915480;75;21117;-72
2022/05/15 05:02:30;;;;;;;10.10;8.15;;;33.90;87.40;;;;;;1908746;74;22267;-73
2022/05/15 05:05:02;;;;;;;11.55;8.23;;;33.80;88.20;;;;;;1892236;74;21197;-72
2022/05/15 05:07:36;;;;;;;13.20;8.63;;;33.80;88.10;;;;;;1900986;75;21591;-72
2022/05/15 05:10:10;;;;;;;11.50;8.50;;;33.80;88.30;;;;;;1896492;75;21626;-72
2022/05/15 05:12:42;;;;;;;13.60;8.20;;;33.80;89.00;;;;;;1884505;74;21151;-72
2022/05/15 05:15:14;;;;;;;12.90;8.25;;;33.80;88.30;;;;;;1874671;76;21177;-72
2022/05/15 05:17:45;;;;;;;13.08;8.63;;;33.80;89.20;;;;;;1867859;75;21100;-72
2022/05/15 05:20:17;;;;;;;14.55;8.78;;;33.80;88.90;;;;;;1866521;75;21709;-72
2022/05/15 05:22:49;;;;;;;12.63;8.68;;;33.90;89.10;;;;;;1825763;78;21167;-72
2022/05/15 05:25:20;;;;;;;10.70;7.92;;;33.90;88.60;;;;;;1901214;75;21147;-73
2022/05/15 05:27:51;;;;;;;11.48;8.33;;;33.90;88.50;;;;;;1903054;75;21108;-73
2022/05/15 05:30:24;;;;;;;11.05;7.62;;;34.00;87.70;;;;;;1907085;74;21072;-72
2022/05/15 05:32:55;;;;;;;9.75;6.87;;;34.00;86.30;;;;;;1906107;75;21131;-73
2022/05/15 05:35:27;;;;;;;8.68;6.12;;;34.00;83.80;;;;;;1899834;74;21198;-73
2022/05/15 05:37:58;;;;;;;13.53;7.35;;;34.00;85.60;;;;;;1915169;74;21060;-72
2022/05/15 05:40:29;;;;;;;9.30;6.78;;;34.00;84.50;;;;;;1914819;75;21598;-73
2022/05/15 05:43:00;;;;;;;11.48;6.72;;;34.10;83.90;;;;;;1897950;75;21089;-72
2022/05/15 05:45:32;;;;;;;8.43;5.62;;;34.10;83.00;;;;;;1893370;74;21128;-74
2022/05/15 05:48:03;;;;;;;12.35;6.90;;;34.10;81.30;;;;;;1866685;75;21104;-74
2022/05/15 05:50:34;;;;;;;11.15;7.40;;;34.10;84.60;;;;;;1869050;74;21541;-73
2022/05/15 05:53:06;;;;;;;10.50;7.75;;;34.10;85.30;;;;;;1865930;75;21235;-72
2022/05/15 05:55:37;;;;;;;9.33;7.42;;;34.10;84.70;;;;;;1867452;74;21183;-73
2022/05/15 05:58:08;;;;;;;11.30;7.22;;;34.10;83.80;;;;;;1865678;75;21097;-73
2022/05/15 06:00:40;;;;;;;9.20;6.70;;;34.20;85.30;;;;;;1861311;75;21643;-72
2022/05/15 06:05:49;;;;;;;10.95;7.70;;;34.20;84.80;;;;;;1864044;74;21071;-73
2022/05/15 06:08:21;;;;;;;10.55;7.75;;;34.10;84.10;;;;;;1911146;73;21140;-73
2022/05/15 06:10:52;;;;;;;10.82;7.03;;;34.10;83.50;;;;;;1888891;75;21660;-72
2022/05/15 06:13:25;;;;;;;11.53;7.50;;;34.00;85.30;;;;;;1900767;75;21587;-73
2022/05/15 06:15:57;;;;;;;10.55;7.55;;;34.00;84.50;;;;;;1907096;73;21306;-73
2022/05/15 06:18:28;;;;;;;9.00;7.40;;;34.00;85.30;;;;;;1916667;73;21183;-73
2022/05/15 06:20:59;;;;;;;13.15;7.08;;;34.00;84.50;;;;;;1912416;75;21139;-73
2022/05/15 06:23:31;;;;;;;10.30;6.95;;;34.20;84.70;;;;;;1904971;75;22094;-73
2022/05/15 06:26:03;;;;;;;8.63;6.75;;;34.20;83.50;;;;;;1899679;75;21699;-73
2022/05/15 06:28:34;;;;;;;9.23;7.28;;;34.20;83.70;;;;;;1872311;76;21237;-74
2022/05/15 06:31:05;;;;;;;9.53;7.37;;;34.20;82.80;;;;;;1899806;75;21136;-73
2022/05/15 06:33:37;;;;;;;9.20;6.37;;;34.30;83.40;;;;;;1899572;73;21162;-72
2022/05/15 06:36:08;;;;;;;9.33;6.70;;;34.30;82.80;;;;;;1881671;75;21901;-72
2022/05/15 06:38:41;;;;;;;11.68;6.87;;;34.40;81.70;;;;;;1866094;75;21115;-73
2022/05/15 06:41:14;;;;;;;7.85;6.45;;;34.30;81.60;;;;;;1907067;74;21546;-72
2022/05/15 06:43:45;;;;;;;8.38;6.42;;;34.40;80.80;;;;;;1912408;73;21128;-73
2022/05/15 06:46:16;;;;;;;10.35;6.83;;;34.40;81.30;;;;;;1892048;74;21177;-73
2022/05/15 06:48:47;;;;;;;9.13;6.45;;;34.40;81.20;;;;;;1890544;74;21241;-73
2022/05/15 06:51:22;;;;;;;9.33;6.53;;;34.30;81.20;;;;;;1894033;75;21088;-73
2022/05/15 06:53:53;;;;;;;12.07;6.30;;;34.20;81.10;;;;;;1899477;74;21615;-72
2022/05/15 06:58:57;;;;;;;8.45;6.20;;;34.20;83.60;;;;;;1914811;74;21151;-72
2022/05/15 07:01:28;;;;;;;12.10;7.05;;;34.30;83.00;;;;;;1916721;75;21694;-71
2022/05/15 07:03:59;;;;;;;10.90;7.22;;;34.40;82.30;;;;;;1906554;74;21221;-72
2022/05/15 07:06:31;;;;;;;12.33;6.65;;;34.40;82.50;;;;;;1901193;74;21088;-73
2022/05/15 07:09:01;;;;;;;10.65;6.80;;;34.40;82.80;;;;;;1899073;74;21204;-72
2022/05/15 07:11:33;;;;;;;9.40;6.58;;;34.40;81.60;;;;;;1884764;75;21665;-72
2022/05/15 07:14:05;;;;;;;11.33;6.70;;;34.40;82.00;;;;;;1869901;74;21179;-72
2022/05/15 07:16:40;;;;;;;;;;;34.30;82.40;;;;;;1875003;75;21281;-72
2022/05/15 07:19:11;;;;;;;7.62;6.15;;;34.20;81.80;;;;;;1828977;78;20175;-72
2022/05/15 07:21:43;;;;;;;11.95;6.37;;;34.20;81.30;;;;;;1834490;78;21549;-72
2022/05/15 07:24:14;;;;;;;8.30;6.50;;;34.10;81.20;;;;;;1838313;78;21145;-71
2022/05/15 07:26:45;;;;;;;10.48;6.55;;;34.00;81.80;;;;;;1905276;75;21654;-72
2022/05/15 07:29:17;;;;;;;10.88;6.80;;;34.00;81.40;;;;;;1891737;75;21658;-72
2022/05/15 07:31:50;;;;;;;10.08;7.03;;;34.00;82.00;;;;;;1840826;77;21156;-72
2022/05/15 07:34:21;;;;;;;9.88;6.10;;;33.90;83.00;;;;;;1829084;78;21615;-71
2022/05/15 07:36:53;;;;;;;8.93;6.55;;;33.90;82.90;;;;;;1915536;75;21192;-72
2022/05/15 07:39:23;;;;;;;11.55;6.65;;;33.80;83.80;;;;;;1897142;75;21624;-72
2022/05/15 07:41:55;;;;;;;7.45;5.67;;;33.80;83.00;;;;;;1893583;75;21764;-71
2022/05/15 07:44:28;;;;;;;9.10;6.25;;;33.90;82.10;;;;;;1892244;75;21603;-71
2022/05/15 07:46:59;;;;;;;12.80;6.30;;;33.90;82.30;;;;;;1892451;75;21645;-71
2022/05/15 07:49:31;;;;;;;9.55;6.25;;;33.90;82.40;;;;;;1882059;75;21608;-72
2022/05/15 07:52:03;;;;;;;9.03;6.03;;;33.90;81.60;;;;;;1866888;75;21579;-72
2022/05/15 07:54:34;;;;;;;8.75;5.83;;;33.90;82.00;;;;;;1873505;75;21191;-72
2022/05/15 07:57:06;;;;;;;10.75;7.37;;;33.80;81.30;;;;;;1866544;75;21145;-72
2022/05/15 07:59:37;;;;;;;14.10;8.20;;;33.80;81.90;;;;;;1905358;75;21115;-72
2022/05/15 08:02:07;;;;;;;9.50;6.40;;;33.70;81.70;;;;;;1914818;74;21104;-71
2022/05/15 08:09:43;;;;;;;8.68;6.97;;;33.50;83.70;;;;;;1909995;74;21065;-72
2022/05/15 08:12:15;;;;;;;15.38;8.50;;;33.50;84.40;;;;;;1910268;74;21635;-72
2022/05/15 08:14:46;;;;;;;11.00;7.60;;;33.40;84.70;;;;;;1904760;74;21135;-72
2022/05/15 08:17:18;;;;;;;18.77;8.50;;;33.40;86.30;;;;;;1842558;76;21131;-72
2022/05/15 08:24:56;;;;;;;18.40;10.78;;;33.10;92.10;;;;;;1874710;75;21172;-72
2022/05/15 08:27:27;;;;;;;14.15;9.10;;;32.80;93.10;;;;;;1906664;74;21124;-72
2022/05/15 08:29:58;;;;;;;18.35;9.48;;;32.30;92.80;;;;;;1900652;74;21206;-72
2022/05/15 08:32:28;;;;;;;16.00;7.15;;;31.70;93.20;;;;;;1902764;74;22210;-72
2022/05/15 08:35:01;;;;;;;11.10;6.70;;;31.10;93.60;;;;;;1855355;76;21239;-72
2022/05/15 08:37:32;;;;;;;15.10;7.25;;;30.50;94.40;;;;;;1842403;76;21226;-71
2022/05/15 08:40:03;;;;;;;10.20;4.22;;;30.10;95.60;;;;;;1910132;73;21112;-72
2022/05/15 08:42:37;;;;;;;9.78;5.05;;;29.60;94.70;;;;;;1917743;73;21103;-70
2022/05/15 08:45:10;;;;;;;10.88;4.60;;;29.20;95.40;;;;;;1858820;76;21158;-71
2022/05/15 08:47:43;;;;;;;7.05;3.15;;;28.70;96.20;;;;;;1912852;73;21584;-72
2022/05/15 08:50:18;;;;;;;11.45;3.85;;;28.40;95.90;;;;;;1905111;73;21792;-71
2022/05/15 08:52:51;;;;;;;12.45;4.10;;;28.00;97.30;;;;;;1908702;75;21224;-71
2022/05/15 08:55:25;;;;;;;12.37;3.80;;;27.60;98.80;;;;;;1897594;74;21539;-71
2022/05/15 08:58:00;;;;;;;9.25;4.50;;;27.10;99.50;;;;;;1898457;74;21679;-71
2022/05/15 09:00:33;;;;;;;7.03;2.83;;;26.50;99.60;;;;;;1894419;74;21115;-71
2022/05/15 09:03:07;;;;;;;6.20;2.62;;;26.30;99.90;;;;;;1878030;75;21194;-71
2022/05/15 09:05:38;;;;;;;8.30;2.50;;;26.00;99.90;;;;;;1904662;74;21178;-71
2022/05/15 09:08:11;;;;;;;4.58;1.87;;;26.10;99.90;;;;;;1838338;77;21587;-71
2022/05/15 09:10:46;;;;;;;5.92;1.98;;;25.90;99.90;;;;;;1896479;75;21741;-70
2022/05/15 09:13:19;;;;;;;6.15;1.95;;;25.70;99.90;;;;;;1888987;75;21053;-71
2022/05/15 09:15:53;;;;;;;6.15;2.35;;;25.50;99.90;;;;;;1885647;74;21605;-71
2022/05/15 09:18:24;;;;;;;5.62;2.15;;;25.40;99.90;;;;;;1841176;76;21124;-71
2022/05/15 09:20:57;;;;;;;4.78;2.30;;;25.50;99.90;;;;;;1868344;76;21172;-72
2022/05/15 09:23:34;;;;;;;4.83;2.22;;;25.60;99.90;;;;;;1842337;76;21248;-71
2022/05/15 09:26:05;;;;;;;4.80;2.12;;;25.60;99.90;;;;;;1909568;73;21232;-70
2022/05/15 09:28:41;;;;;;;3.65;1.95;;;25.50;99.90;;;;;;1901372;75;21097;-71
2022/05/15 09:31:14;;;;;;;5.35;1.75;;;25.50;99.90;;;;;;1873088;75;21151;-71
2022/05/15 09:33:50;;;;;;;4.00;1.85;;;25.20;99.90;;;;;;1810424;78;21515;-71
2022/05/15 09:36:23;;;;;;;6.53;2.42;;;25.40;99.90;;;;;;1828295;78;21939;-72
2022/05/15 09:38:56;;;;;;;4.33;1.80;;;25.30;99.90;;;;;;1841489;76;21256;-72
2022/05/15 09:44:02;;;;;;;6.70;2.60;;;25.40;99.90;;;;;;1891330;74;21241;-71
2022/05/15 09:46:33;;;;;;;6.17;2.08;;;25.40;99.90;;;;;;1898309;75;21128;-70
2022/05/15 09:49:06;;;;;;;6.70;1.87;;;25.50;99.90;;;;;;1910765;74;21663;-71
2022/05/15 09:51:40;;;;;;;5.60;2.10;;;25.40;99.90;;;;;;1911900;74;21144;-71
2022/05/15 09:54:14;;;;;;;9.05;2.15;;;25.60;99.90;;;;;;1901673;74;21408;-72
2022/05/15 09:56:44;;;;;;;4.25;1.70;;;25.50;99.90;;;;;;1891127;73;21614;-73
2022/05/15 09:59:15;;;;;;;4.83;1.90;;;25.50;99.90;;;;;;1906845;74;21610;-72
2022/05/15 10:01:49;;;;;;;6.97;1.70;;;25.40;99.90;;;;;;1899560;74;21248;-72
2022/05/15 10:04:24;;;;;;;5.20;1.95;;;25.40;99.90;;;;;;1914843;73;21705;-72
2022/05/15 10:06:57;;;;;;;5.75;2.02;;;25.80;99.90;;;;;;1898934;75;21241;-72
2022/05/15 10:09:34;;;;;;;12.05;1.80;;;25.90;99.90;;;;;;1834569;77;21654;-72
2022/05/15 10:12:05;;;;;;;5.00;2.15;;;25.70;99.90;;;;;;1879206;75;21186;-72
2022/05/15 10:14:38;;;;;;;6.58;3.00;;;25.80;99.90;;;;;;1872600;75;21151;-71
2022/05/15 10:17:11;;;;;;;7.42;2.10;;;25.90;99.90;;;;;;1841097;77;21130;-71
2022/05/15 10:19:45;;;;;;;6.25;2.35;;;26.10;99.90;;;;;;1897758;74;21104;-72
2022/05/15 10:22:18;;;;;;;5.75;2.58;;;26.20;99.90;;;;;;1905371;75;21139;-72
2022/05/15 10:24:52;;;;;;;4.50;2.22;;;26.50;99.90;;;;;;1908630;74;21216;-72
2022/05/15 10:27:25;;;;;;;5.75;3.05;;;26.70;99.90;;;;;;1900330;74;21551;-72
2022/05/15 10:29:58;;;;;;;9.20;3.22;;;26.40;99.90;;;;;;1920968;74;21230;-72
2022/05/15 10:32:31;;;;;;;6.67;4.17;;;26.50;99.90;;;;;;1920531;74;21536;-71
2022/05/15 10:35:03;;;;;;;10.10;2.45;;;26.60;99.90;;;;;;1902920;73;21554;-72
2022/05/15 10:37:36;;;;;;;6.22;2.20;;;26.50;99.90;;;;;;1899973;75;21547;-72
2022/05/15 10:40:09;;;;;;;5.10;2.25;;;26.70;99.90;;;;;;1902079;75;21152;-81
2022/05/15 10:42:43;;;;;;;6.50;2.72;;;26.70;99.90;;;;;;1901056;75;21171;-81
2022/05/15 10:45:16;;;;;;;6.53;2.72;;;26.90;99.90;;;;;;1899925;75;21586;-81
2022/05/15 10:47:50;;;;;;;5.47;2.40;;;26.70;99.90;;;;;;1903778;75;21132;-81
2022/05/15 10:50:22;;;;;;;5.15;2.27;;;;;;;;;;1905449;74;21603;-81
2022/05/15 10:52:55;;;;;;;5.45;2.02;;;;;;;;;;1899737;75;21089;-81
2022/05/15 10:58:07;;;;;;;5.78;2.17;;;26.70;99.90;;;;;;1873588;76;21744;-81
2022/05/15 11:00:40;;;;;;;4.90;2.02;;;26.70;99.90;;;;;;1820565;76;21675;-81
2022/05/15 11:03:15;;;;;;;6.30;2.20;;;26.70;99.90;;;;;;1837200;78;21119;-82
2022/05/15 11:05:54;;;;;;;4.03;2.25;;;26.80;99.90;;;;;;1870167;76;21607;-80
2022/05/15 11:08:27;;;;;;;6.22;2.55;;;26.80;99.90;;;;;;1826368;78;21097;-79
2022/05/15 11:11:00;;;;;;;8.88;2.85;;;26.80;99.90;;;;;;1807991;79;21094;-79
2022/05/15 11:13:33;;;;;;;5.12;2.50;;;26.80;99.90;;;;;;1839563;76;21159;-81
2022/05/15 11:16:07;;;;;;;5.70;2.75;;;26.80;99.90;;;;;;1857856;74;21240;-80
2022/05/15 11:18:41;;;;;;;4.72;2.62;;;26.80;99.90;;;;;;1921940;73;21205;-81
2022/05/15 11:21:14;;;;;;;6.05;2.80;;;26.90;99.90;;;;;;1868387;76;21108;-82
2022/05/15 11:23:48;;;;;;;5.47;2.50;;;26.90;99.90;;;;;;1868773;76;21119;-80
2022/05/15 11:26:21;;;;;;;6.08;2.22;;;26.90;99.90;;;;;;1883200;73;21931;-81
2022/05/15 11:28:55;;;;;;;6.35;2.00;;;26.90;99.90;;;;;;1909008;75;21155;-81
2022/05/15 11:31:28;;;;;;;5.12;2.60;;;26.90;99.90;;;;;;1908170;74;21132;-80
2022/05/15 11:34:03;;;;;;;6.12;2.50;;;26.90;99.90;;;;;;1908429;74;21127;-81
2022/05/15 11:36:36;;;;;;;4.08;2.62;;;26.90;99.90;;;;;;1919717;73;21083;-80
2022/05/15 11:39:09;;;;;;;8.83;3.00;;;26.80;99.90;;;;;;1915893;73;21127;-80
2022/05/15 11:41:43;;;;;;;5.60;2.90;;;26.80;99.90;;;;;;1899032;75;21735;-81
2022/05/15 11:44:20;;;;;;;7.50;3.30;;;26.80;99.90;;;;;;1889148;75;21178;-81
2022/05/15 11:46:51;;;;;;;6.50;3.10;;;26.80;99.90;;;;;;1903955;75;21197;-80
2022/05/15 11:49:25;;;;;;;8.13;3.60;;;26.80;99.90;;;;;;1832425;78;21140;-80
2022/05/15 11:51:58;;;;;;;7.58;3.75;;;26.70;99.90;;;;;;1858652;76;21139;-80
2022/05/15 11:54:33;;;;;;;6.83;3.33;;;26.80;99.90;;;;;;1903541;75;21169;-81
2022/05/15 11:57:05;;;;;;;7.80;3.47;;;26.70;99.90;;;;;;1906475;75;21163;-82
2022/05/15 11:59:39;;;;;;;11.05;3.62;;;26.80;99.90;;;;;;1900214;75;21092;-81
2022/05/15 12:02:12;;;;;;;8.70;5.00;;;26.80;99.90;;;;;;1916677;73;21091;-81
2022/05/15 12:04:47;;;;;;;10.98;4.80;;;26.80;99.90;;;;;;1912509;73;21217;-80
2022/05/15 12:07:20;;;;;;;7.72;4.65;;;26.80;99.90;;;;;;1887527;75;21610;-81
2022/05/15 12:09:53;;;;;;;9.18;4.90;;;26.80;99.90;;;;;;1921030;73;21159;-79
2022/05/15 12:12:32;;;;;;;8.85;4.60;;;26.80;99.90;;;;;;1891416;73;21230;-80
2022/05/15 12:15:01;;;;;;;10.68;5.58;;;26.80;99.90;;;;;;1897180;74;21134;-81
2022/05/15 12:17:38;;;;;;;11.57;5.17;;;26.80;99.90;;;;;;1913408;73;21154;-80
2022/05/15 12:20:13;;;;;;;8.60;4.37;;;26.80;99.90;;;;;;1917769;74;21299;-82
2022/05/15 12:22:47;;;;;;;7.70;4.65;;;26.80;99.90;;;;;;1892120;73;21724;-82
2022/05/15 12:25:19;;;;;;;10.08;4.97;;;26.80;99.90;;;;;;1894714;73;21131;-80
2022/05/15 12:27:52;;;;;;;9.95;5.30;;;26.80;99.90;;;;;;1861926;75;21726;-80
2022/05/15 12:30:24;;;;;;;9.23;4.90;;;26.80;99.90;;;;;;1851372;76;21179;-81
2022/05/15 12:33:00;;;;;;;9.03;5.20;;;26.80;99.90;;;;;;1832182;78;21235;-80
2022/05/15 12:35:33;;;;;;;13.18;5.85;;;26.80;99.90;;;;;;1909567;75;21151;-81
2022/05/15 12:38:06;;;;;;;9.05;6.05;;;26.80;99.90;;;;;;1899120;75;21519;-81
2022/05/15 12:40:40;;;;;;;9.93;5.45;;;26.80;99.90;;;;;;1900612;75;21535;-81
2022/05/15 12:43:15;;;;;;;11.75;6.30;;;26.80;99.90;;;;;;1899133;74;21241;-82
2022/05/15 12:45:47;;;;;;;9.20;6.00;;;26.80;99.90;;;;;;1916254;74;21251;-81
2022/05/15 12:48:22;;;;;;;11.75;6.72;;;26.80;99.90;;;;;;1907883;74;21155;-82
2022/05/15 12:50:55;;;;;;;9.88;6.55;;;26.80;99.90;;;;;;1901994;75;21164;-80
2022/05/15 12:53:28;;;;;;;13.48;6.75;;;26.80;99.90;;;;;;1892776;74;21253;-81
2022/05/15 12:56:02;;;;;;;12.60;7.62;;;26.80;99.90;;;;;;1899016;74;21147;-80
2022/05/15 12:58:34;;;;;;;10.70;7.42;;;26.80;99.90;;;;;;1870549;74;21292;-81
2022/05/15 13:01:06;;;;;;;13.78;9.03;;;26.80;99.90;;;;;;1928540;73;21116;-82
2022/05/15 13:03:42;;;;;;;13.80;9.53;;;26.80;99.90;;;;;;1931271;73;21218;-80
2022/05/15 13:06:17;;;;;;;12.35;8.55;;;26.80;99.90;;;;;;1884603;73;21206;-81
2022/05/15 13:08:51;;;;;;;12.25;9.23;;;26.80;99.90;;;;;;1911145;74;21108;-81
2022/05/15 13:11:24;;;;;;;11.38;8.65;;;26.70;99.90;;;;;;1903995;73;21431;-81
2022/05/15 13:13:58;;;;;;;13.75;8.68;;;26.80;99.90;;;;;;1907701;73;21182;-79
2022/05/15 13:16:31;;;;;;;13.93;9.65;;;26.80;99.90;;;;;;1904686;75;21203;-82
2022/05/15 13:19:03;;;;;;;13.15;9.33;;;26.80;99.90;;;;;;1901590;73;21193;-81
2022/05/15 13:21:36;;;;;;;12.58;8.43;;;26.80;99.90;;;;;;1914581;73;21127;-81
2022/05/15 13:24:09;;;;;;;11.05;9.48;;;26.90;99.90;;;;;;1904122;74;21156;-81
2022/05/15 13:26:44;;;;;;;13.53;9.30;;;26.80;99.90;;;;;;1889340;74;21650;-82
2022/05/15 13:29:18;;;;;;;12.73;9.20;;;26.80;99.90;;;;;;1920132;74;21653;-81
2022/05/15 13:31:53;;;;;;;12.60;8.90;;;26.80;99.90;;;;;;1905862;73;21260;-82
2022/05/15 13:34:29;;;;;;;12.30;8.63;;;26.80;99.90;;;;;;1895854;74;21128;-81
2022/05/15 13:37:00;;;;;;;12.33;8.08;;;26.70;99.90;;;;;;1830709;76;21152;-81
2022/05/15 13:44:41;;;;;;;13.15;8.60;;;26.70;99.90;;;;;;1904691;75;21150;-80